Time;durP1;ratioP1;P1;durP2;ratioP2;P2;SDS_P1;SDS_P2;PMS_P1;PMS_P2;Temp;Humidity;BMP_temperature;BMP_pressure;BME280_temperature;BME280_humidity;BME280_pressure;Samples;Min_cycle;Max_cycle;Signal;HPM_P1;HPM_P2
2021/09/25 00:02:16;;;;;;;3.30;0.60;;;;;;;10.14;81.13;98640.78;1839290;77;21485;-68
2021/09/25 00:04:42;;;;;;;2.85;0.60;;;;;;;10.17;81.08;98646.47;1859653;77;20972;-69
2021/09/25 00:07:10;;;;;;;2.80;0.75;;;;;;;10.20;80.93;98648.59;1819074;77;21629;-68
2021/09/25 00:09:40;;;;;;;2.52;0.70;;;;;;;10.19;80.79;98654.35;1837296;77;20998;-72
2021/09/25 00:12:05;;;;;;;3.75;0.50;;;;;;;10.18;80.77;98656.26;1832980;77;21040;-70
2021/09/25 00:14:31;;;;;;;3.52;0.75;;;;;;;10.18;80.72;98650.01;1842432;77;20939;-69
2021/09/25 00:16:58;;;;;;;4.92;0.90;;;;;;;10.20;80.64;98645.88;1807584;79;21080;-71
2021/09/25 00:19:24;;;;;;;1.62;0.50;;;;;;;10.19;80.56;98651.08;1790038;79;21000;-69
2021/09/25 00:21:50;;;;;;;1.47;0.53;;;;;;;10.20;80.50;98648.59;1795315;79;21067;-68
2021/09/25 00:24:17;;;;;;;3.95;0.75;;;;;;;10.22;80.41;98654.57;1762413;81;21513;-68
2021/09/25 00:26:43;;;;;;;1.25;0.45;;;;;;;10.23;80.32;98652.11;1788627;79;21041;-71
2021/09/25 00:29:09;;;;;;;;;;;;;;;10.24;80.26;98659.70;1789404;80;21518;-69
2021/09/25 00:31:36;;;;;;;3.72;0.53;;;;;;;10.26;80.25;98665.12;1786440;80;20123;-74
2021/09/25 00:34:02;;;;;;;2.12;0.60;;;;;;;10.25;80.25;98672.20;1788232;80;21047;-74
2021/09/25 00:36:28;;;;;;;;;;;;;;;10.25;80.23;98669.48;1790498;80;21091;-73
2021/09/25 00:38:55;;;;;;;4.20;0.50;;;;;;;10.29;80.15;98670.52;1789078;80;20137;-72
2021/09/25 00:41:21;;;;;;;2.22;0.70;;;;;;;10.26;80.17;98674.64;1772931;80;21036;-72
2021/09/25 00:43:47;;;;;;;4.83;0.70;;;;;;;10.28;80.07;98676.50;1777024;80;21454;-69
2021/09/25 00:46:14;;;;;;;2.80;0.53;;;;;;;10.30;80.01;98678.39;1760322;81;21535;-73
2021/09/25 00:48:41;;;;;;;;;;;;;;;10.31;79.93;98682.70;1779432;80;21037;-74
2021/09/25 00:51:07;;;;;;;4.08;0.60;;;;;;;10.33;79.75;98681.06;1767294;80;20118;-70
2021/09/25 00:53:33;;;;;;;3.12;0.60;;;;;;;10.26;79.85;98688.78;1760777;80;20992;-71
2021/09/25 00:56:00;;;;;;;1.95;0.53;;;;;;;10.24;79.78;98686.34;1769047;80;21159;-68
2021/09/25 00:58:26;;;;;;;1.82;0.40;;;;;;;10.23;79.79;98681.22;1756325;81;20997;-69
2021/09/25 01:00:52;;;;;;;1.25;0.62;;;;;;;10.24;79.79;98677.38;1757307;80;21056;-72
2021/09/25 01:03:18;;;;;;;2.35;0.60;;;;;;;10.25;79.77;98681.72;1787015;79;20959;-70
2021/09/25 01:05:45;;;;;;;1.82;0.50;;;;;;;10.28;79.74;98692.81;1788791;79;21523;-70
2021/09/25 01:08:12;;;;;;;2.92;0.40;;;;;;;10.30;79.70;98686.55;1759155;81;21010;-71
2021/09/25 01:10:40;;;;;;;1.27;0.42;;;;;;;10.32;79.64;98693.85;1761255;80;21468;-71
2021/09/25 01:13:06;;;;;;;1.82;0.40;;;;;;;10.35;79.60;98693.80;1774047;80;21388;-69
2021/09/25 01:15:32;;;;;;;3.17;0.60;;;;;;;10.37;79.51;98706.03;1775150;80;21035;-72
2021/09/25 01:17:59;;;;;;;5.37;0.60;;;;;;;10.37;79.44;98707.94;1754428;80;21209;-70
2021/09/25 01:20:25;;;;;;;2.33;0.50;;;;;;;10.37;79.44;98710.11;1786740;79;21039;-73
2021/09/25 01:22:51;;;;;;;2.62;0.62;;;;;;;10.37;79.37;98706.03;1796133;79;21432;-71
2021/09/25 01:25:18;;;;;;;2.58;0.40;;;;;;;10.34;79.35;98703.91;1770824;80;21024;-71
2021/09/25 01:27:44;;;;;;;4.42;0.95;;;;;;;10.34;79.42;98705.81;1775028;80;21517;-71
2021/09/25 01:30:13;;;;;;;1.17;0.40;;;;;;;10.34;79.49;98704.45;1770965;79;20997;-70
2021/09/25 01:32:39;;;;;;;1.95;0.62;;;;;;;10.33;79.49;98709.08;1773529;79;21050;-69
2021/09/25 01:35:06;;;;;;;;;;;;;;;10.30;79.51;98711.03;1790531;79;21004;-72
2021/09/25 01:37:33;;;;;;;3.10;0.57;;;;;;;10.29;79.59;98715.39;1782560;79;20096;-70
2021/09/25 01:39:59;;;;;;;4.12;0.60;;;;;;;10.26;79.79;98711.36;1789270;79;21015;-71
2021/09/25 01:42:26;;;;;;;1.47;0.42;;;;;;;10.23;79.78;98712.50;1786499;79;21059;-70
2021/09/25 01:44:52;;;;;;;3.72;0.65;;;;;;;10.21;79.87;98705.98;1791509;79;21002;-70
2021/09/25 01:47:18;;;;;;;3.95;0.68;;;;;;;10.19;79.89;98713.64;1811195;79;21584;-69
2021/09/25 01:49:45;;;;;;;4.00;0.50;;;;;;;10.18;79.99;98721.53;1794886;79;21499;-68
2021/09/25 01:52:11;;;;;;;2.70;0.70;;;;;;;10.20;80.01;98717.95;1786162;79;21036;-69
2021/09/25 01:54:38;;;;;;;3.60;0.62;;;;;;;10.19;80.04;98721.80;1780686;79;20987;-69
2021/09/25 01:57:04;;;;;;;3.62;0.80;;;;;;;10.19;80.11;98722.34;1811330;79;21039;-70
2021/09/25 01:59:30;;;;;;;2.83;0.65;;;;;;;10.19;80.15;98725.06;1787433;79;21503;-70
2021/09/25 02:01:57;;;;;;;3.27;0.57;;;;;;;10.20;80.19;98729.41;1799916;79;21068;-69
2021/09/25 02:04:23;;;;;;;5.12;0.60;;;;;;;10.20;80.12;98741.06;1762294;80;21481;-70
2021/09/25 02:06:49;;;;;;;2.47;0.50;;;;;;;10.21;80.19;98742.70;1783631;79;21072;-69
2021/09/25 02:09:16;;;;;;;2.62;0.70;;;;;;;10.22;80.21;98754.39;1790328;79;21489;-72
2021/09/25 02:11:42;;;;;;;4.28;0.70;;;;;;;10.20;80.21;98758.75;1773482;80;21062;-72
2021/09/25 02:14:08;;;;;;;4.08;0.65;;;;;;;10.14;80.25;98761.28;1820745;79;21001;-69
2021/09/25 02:16:35;;;;;;;3.75;0.60;;;;;;;10.12;80.45;98774.89;1783795;79;21571;-71
2021/09/25 02:19:01;;;;;;;6.92;0.82;;;;;;;10.10;80.51;98768.38;1794571;79;21451;-74
2021/09/25 02:21:27;;;;;;;4.00;0.80;;;;;;;10.08;80.60;98771.95;1755216;80;21665;-72
2021/09/25 02:23:54;;;;;;;3.47;0.98;;;;;;;10.07;80.67;98776.30;1779361;79;20985;-69
2021/09/25 02:26:20;;;;;;;3.25;0.88;;;;;;;10.06;80.75;98782.29;1733038;80;21115;-69
2021/09/25 02:28:46;;;;;;;2.92;1.10;;;;;;;10.06;80.82;98779.57;1754609;81;21021;-72
2021/09/25 02:31:12;;;;;;;5.75;1.15;;;;;;;10.07;80.82;98781.20;1774033;81;21033;-74
2021/09/25 02:33:39;;;;;;;3.33;0.75;;;;;;;10.05;80.77;98791.56;1775592;80;21051;-72
2021/09/25 02:36:06;;;;;;;2.08;0.70;;;;;;;10.01;80.80;98778.30;1763252;80;21481;-71
2021/09/25 02:38:32;;;;;;;3.55;1.00;;;;;;;10.05;80.87;98790.20;1733719;81;21017;-69
2021/09/25 02:40:58;;;;;;;6.42;1.17;;;;;;;10.08;80.80;98791.53;1782961;79;21026;-68
2021/09/25 02:43:25;;;;;;;5.28;1.50;;;;;;;10.09;80.66;98799.41;1802880;79;21000;-69
2021/09/25 02:45:51;;;;;;;4.62;1.22;;;;;;;10.14;80.56;98795.80;1793192;79;21042;-72
2021/09/25 02:48:17;;;;;;;6.35;1.20;;;;;;;10.15;80.37;98799.63;1797610;79;21066;-68
2021/09/25 02:50:44;;;;;;;4.20;1.20;;;;;;;10.11;80.34;98802.63;1791951;79;21023;-72
2021/09/25 02:53:10;;;;;;;5.28;1.15;;;;;;;10.12;80.31;98808.34;1790669;79;21030;-71
2021/09/25 02:55:36;;;;;;;4.12;1.00;;;;;;;10.10;80.23;98813.24;1787256;79;21490;-73
2021/09/25 02:58:03;;;;;;;2.92;0.95;;;;;;;10.11;80.18;98819.50;1783115;79;21071;-70
2021/09/25 03:00:29;;;;;;;2.40;0.70;;;;;;;10.10;80.15;98824.12;1781132;79;21532;-75
2021/09/25 03:02:55;;;;;;;1.75;0.55;;;;;;;10.11;80.15;98817.59;1791894;79;21003;-74
2021/09/25 03:05:22;;;;;;;6.33;0.82;;;;;;;10.16;80.16;98827.09;1802950;79;20993;-73
2021/09/25 03:07:48;;;;;;;3.85;0.75;;;;;;;10.18;79.94;98834.39;1794992;79;21074;-72
2021/09/25 03:10:14;;;;;;;3.08;0.50;;;;;;;10.15;79.85;98832.81;1730454;80;20999;-74
2021/09/25 03:12:40;;;;;;;2.67;0.53;;;;;;;10.13;79.89;98841.21;1765067;80;21596;-71
2021/09/25 03:15:08;;;;;;;3.30;0.88;;;;;;;10.15;79.87;98839.06;1805081;79;20990;-72
2021/09/25 03:17:35;;;;;;;4.37;0.88;;;;;;;10.15;79.85;98839.06;1794886;79;21094;-70
2021/09/25 03:20:01;;;;;;;6.03;1.20;;;;;;;10.18;79.81;98848.54;1794291;79;20945;-72
2021/09/25 03:22:27;;;;;;;3.72;1.20;;;;;;;10.14;79.73;98854.27;1793894;79;21030;-70
2021/09/25 03:24:53;;;;;;;3.62;0.90;;;;;;;10.14;79.74;98847.47;1792391;79;21505;-71
2021/09/25 03:27:20;;;;;;;4.50;0.50;;;;;;;10.11;79.76;98853.48;1799569;79;21021;-69
2021/09/25 03:29:46;;;;;;;2.25;0.70;;;;;;;10.10;79.76;98854.03;1813606;79;21013;-72
2021/09/25 03:32:12;;;;;;;2.35;0.60;;;;;;;10.11;79.79;98867.90;1795921;79;21536;-71
2021/09/25 03:34:39;;;;;;;3.70;0.70;;;;;;;10.10;79.75;98870.34;1798338;79;21554;-70
2021/09/25 03:37:05;;;;;;;2.55;0.60;;;;;;;10.12;79.72;98876.33;1800622;79;21093;-70
2021/09/25 03:39:31;;;;;;;;;;;;;;;10.14;79.73;98883.66;1769681;79;21012;-73
2021/09/25 03:41:58;;;;;;;2.17;0.60;;;;;;;10.13;79.70;98882.00;1810588;78;20136;-71
2021/09/25 03:44:24;;;;;;;3.08;0.50;;;;;;;9.99;79.89;98883.80;1803268;79;20985;-70
2021/09/25 03:46:50;;;;;;;7.47;0.70;;;;;;;9.98;80.03;98885.73;1812484;79;21062;-71
2021/09/25 03:49:17;;;;;;;3.50;0.68;;;;;;;10.03;80.01;98887.56;1803132;79;21500;-70
2021/09/25 03:51:43;;;;;;;;;;;;;;;10.05;79.95;98892.17;1808151;79;21076;-70
2021/09/25 03:54:09;;;;;;;3.17;0.47;;;;;;;10.04;79.81;98890.55;1800241;79;20162;-71
2021/09/25 03:56:36;;;;;;;1.70;0.50;;;;;;;10.00;79.99;98893.03;1794687;79;21010;-71
2021/09/25 03:59:02;;;;;;;;;;;;;;;10.03;79.93;98902.52;1758117;79;21127;-73
2021/09/25 04:01:28;;;;;;;2.22;0.47;;;;;;;10.06;79.90;98904.66;1814582;79;20099;-70
2021/09/25 04:03:56;;;;;;;1.95;0.50;;;;;;;10.03;79.96;98912.03;1794910;79;21023;-71
2021/09/25 04:06:25;;;;;;;1.40;0.40;;;;;;;10.03;79.90;98906.59;1798490;79;21038;-70
2021/09/25 04:08:50;;;;;;;4.47;0.60;;;;;;;10.05;79.90;98911.76;1803736;79;21057;-71
2021/09/25 04:11:17;;;;;;;2.72;0.50;;;;;;;10.07;79.86;98920.42;1802697;79;21005;-68
2021/09/25 04:13:43;;;;;;;;;;;;;;;10.09;79.79;98923.69;1813597;79;21001;-70
2021/09/25 04:16:09;;;;;;;2.92;0.50;;;;;;;10.11;79.71;98935.89;1799167;79;20116;-69
2021/09/25 04:18:35;;;;;;;;;;;;;;;10.07;79.72;98940.27;1793310;79;21580;-70
2021/09/25 04:21:02;;;;;;;4.35;0.60;;;;;;;10.08;79.66;98932.39;1802271;79;20145;-70
2021/09/25 04:23:28;;;;;;;4.00;0.62;;;;;;;10.07;79.69;98934.84;1793292;79;21026;-70
2021/09/25 04:25:54;;;;;;;1.75;0.50;;;;;;;10.12;79.65;98938.88;1810624;78;21001;-70
2021/09/25 04:28:21;;;;;;;1.65;0.50;;;;;;;10.19;79.52;98942.09;1818125;79;21006;-68
2021/09/25 04:30:49;;;;;;;3.80;0.72;;;;;;;10.19;79.34;98942.64;1805792;78;20973;-70
2021/09/25 04:33:15;;;;;;;1.82;0.50;;;;;;;10.16;79.14;98952.20;1807247;79;20998;-70
2021/09/25 04:35:42;;;;;;;2.75;0.70;;;;;;;10.20;79.12;98950.49;1797123;79;20942;-73
2021/09/25 04:38:08;;;;;;;2.72;0.60;;;;;;;10.25;79.04;98956.44;1794025;80;21077;-69
2021/09/25 04:40:34;;;;;;;;;;;;;;;10.28;78.88;98951.23;1781763;79;21012;-69
2021/09/25 04:43:01;;;;;;;1.12;0.60;;;;;;;10.32;78.75;98962.34;1801563;79;20134;-70
2021/09/25 04:45:28;;;;;;;2.58;0.50;;;;;;;10.31;78.80;98961.53;1802952;79;20970;-70
2021/09/25 04:47:54;;;;;;;3.02;0.42;;;;;;;10.32;78.52;98965.88;1799370;79;21025;-71
2021/09/25 04:50:21;;;;;;;4.10;0.78;;;;;;;10.32;78.42;98973.23;1803893;79;21024;-71
2021/09/25 04:52:47;;;;;;;3.50;0.55;;;;;;;10.26;78.01;98975.75;1791400;79;21056;-74
2021/09/25 04:55:13;;;;;;;3.50;0.53;;;;;;;10.21;78.06;98983.41;1763652;80;21011;-74
2021/09/25 04:57:40;;;;;;;2.62;0.40;;;;;;;10.23;78.04;98992.66;1777085;80;21087;-72
2021/09/25 05:00:08;;;;;;;3.52;0.42;;;;;;;10.26;78.03;98999.69;1776919;80;20969;-74
2021/09/25 05:02:34;;;;;;;3.00;0.50;;;;;;;10.29;77.90;99003.73;1772388;79;21089;-72
2021/09/25 05:05:00;;;;;;;2.42;0.50;;;;;;;10.26;77.69;99016.01;1783113;79;21014;-70
2021/09/25 05:07:27;;;;;;;1.67;0.40;;;;;;;10.27;77.67;99021.69;1778779;79;21062;-71
2021/09/25 05:09:53;;;;;;;1.85;0.60;;;;;;;10.28;77.61;99022.50;1793324;78;21496;-72
2021/09/25 05:12:20;;;;;;;2.85;1.00;;;;;;;10.27;77.51;99026.34;1792305;80;21623;-79
2021/09/25 05:14:46;;;;;;;2.55;0.55;;;;;;;10.28;77.63;99032.02;1794224;80;21022;-72
2021/09/25 05:17:12;;;;;;;2.67;0.70;;;;;;;10.29;77.47;99037.19;1792947;78;21572;-71
2021/09/25 05:19:39;;;;;;;4.67;1.10;;;;;;;10.27;77.29;99035.87;1788560;80;20996;-71
2021/09/25 05:22:05;;;;;;;2.30;0.78;;;;;;;10.26;77.36;99036.95;1790652;78;21067;-72
2021/09/25 05:24:32;;;;;;;;;;;;;;;10.30;77.40;99037.46;1793603;80;21010;-73
2021/09/25 05:27:00;;;;;;;3.95;0.47;;;;;;;10.33;77.35;99040.97;1793500;78;20430;-72
2021/09/25 05:29:27;;;;;;;3.12;0.60;;;;;;;10.26;77.32;99044.57;1789425;80;21486;-73
2021/09/25 05:31:58;;;;;;;2.58;0.85;;;;;;;10.25;77.24;99040.22;1785527;80;21071;-71
2021/09/25 05:34:23;;;;;;;7.40;0.80;;;;;;;10.27;77.05;99052.19;1766272;80;21005;-77
2021/09/25 05:36:49;;;;;;;2.58;0.68;;;;;;;10.26;77.03;99058.17;1764445;81;21061;-74
2021/09/25 05:39:16;;;;;;;3.02;0.60;;;;;;;10.28;77.11;99064.67;1764977;81;21539;-72
2021/09/25 05:41:42;;;;;;;;;;;;;;;10.28;77.01;99064.13;1767544;81;21048;-71
2021/09/25 05:44:08;;;;;;;2.83;0.55;;;;;;;10.28;76.79;99074.19;1726126;82;20119;-71
2021/09/25 05:46:34;;;;;;;2.08;0.50;;;;;;;10.23;76.89;99073.70;1726579;82;21577;-71
2021/09/25 05:49:01;;;;;;;1.72;0.45;;;;;;;10.23;76.80;99085.13;1727249;81;21004;-69
2021/09/25 05:51:27;;;;;;;2.60;0.70;;;;;;;10.23;76.82;99094.65;1727097;82;21064;-71
2021/09/25 05:53:53;;;;;;;3.08;0.55;;;;;;;10.25;76.83;99093.80;1785241;80;21059;-73
2021/09/25 05:56:20;;;;;;;2.75;0.60;;;;;;;10.28;76.95;99089.97;1782905;80;21517;-71
2021/09/25 05:58:46;;;;;;;12.47;5.22;;;;;;;10.36;76.97;99093.44;1786844;79;20943;-71
2021/09/25 06:01:12;;;;;;;6.37;1.40;;;;;;;10.40;76.81;99108.10;1769852;80;21516;-71
2021/09/25 06:03:39;;;;;;;4.30;2.25;;;;;;;10.45;76.70;99099.09;1771576;80;20979;-78
2021/09/25 06:06:05;;;;;;;6.17;1.90;;;;;;;10.48;76.47;99108.04;1769808;80;21102;-76
2021/09/25 06:08:31;;;;;;;4.05;1.40;;;;;;;10.55;76.61;99107.70;1735110;81;21541;-77
2021/09/25 06:10:58;;;;;;;7.17;3.33;;;;;;;10.64;76.70;99110.05;1708991;83;20965;-74
2021/09/25 06:13:24;;;;;;;5.47;2.12;;;;;;;10.68;76.30;99104.30;1763121;81;21435;-72
2021/09/25 06:15:50;;;;;;;8.38;2.47;;;;;;;10.70;76.31;99108.92;1759724;81;21471;-74
2021/09/25 06:18:17;;;;;;;5.62;1.75;;;;;;;10.75;76.29;99101.50;1733000;80;21053;-72
2021/09/25 06:20:43;;;;;;;4.08;1.60;;;;;;;10.82;76.39;99107.42;1787225;79;20997;-76
2021/09/25 06:23:09;;;;;;;7.62;2.20;;;;;;;10.86;76.46;99098.12;1784050;80;20995;-70
2021/09/25 06:25:35;;;;;;;6.75;1.50;;;;;;;10.88;76.35;99111.70;1761127;80;21006;-73
2021/09/25 06:28:02;;;;;;;3.80;1.70;;;;;;;10.97;76.24;99110.53;1784587;79;21043;-72
2021/09/25 06:30:29;;;;;;;7.00;1.70;;;;;;;11.04;76.08;99108.27;1783785;80;20983;-70
2021/09/25 06:32:56;;;;;;;9.13;1.70;;;;;;;11.09;76.14;99107.41;1785037;80;21024;-71
2021/09/25 06:35:24;;;;;;;5.00;1.50;;;;;;;11.16;76.09;99120.13;1760936;81;20993;-73
2021/09/25 06:37:50;;;;;;;7.03;2.02;;;;;;;11.26;76.10;99115.92;1756421;81;21064;-70
2021/09/25 06:40:17;;;;;;;5.12;1.12;;;;;;;11.34;76.13;99122.88;1780112;80;21001;-74
2021/09/25 06:42:44;;;;;;;5.50;1.27;;;;;;;11.44;75.90;99120.02;1786700;80;21083;-73
2021/09/25 06:45:11;;;;;;;4.25;1.20;;;;;;;11.53;75.63;99133.83;1787032;80;20975;-74
2021/09/25 06:47:37;;;;;;;4.17;1.35;;;;;;;11.56;75.28;99135.15;1762757;80;21060;-71
2021/09/25 06:50:16;;;;;;;;;;;;;;;;;;;;;
2021/09/25 06:52:36;;;;;;;5.95;1.65;;;;;;;11.66;74.91;99150.00;1717266;81;20158;-71
2021/09/25 06:55:06;;;;;;;6.22;1.95;;;;;;;11.52;74.91;99152.64;1776391;80;20961;-70
2021/09/25 06:57:32;;;;;;;6.40;2.33;;;;;;;11.51;75.14;99166.58;1752922;81;21863;-73
2021/09/25 06:59:59;;;;;;;4.37;1.40;;;;;;;11.52;74.82;99172.27;1797483;79;21040;-70
2021/09/25 07:02:26;;;;;;;7.17;1.40;;;;;;;11.54;74.98;99169.53;1748842;81;21583;-70
2021/09/25 07:04:52;;;;;;;7.65;1.57;;;;;;;11.61;75.01;99165.08;1755407;82;21076;-71
2021/09/25 07:07:18;;;;;;;4.45;1.50;;;;;;;11.64;74.87;99168.58;1773704;80;21012;-71
2021/09/25 07:09:45;;;;;;;6.75;1.35;;;;;;;11.69;74.86;99172.63;1787464;80;21071;-70
2021/09/25 07:12:12;;;;;;;5.30;2.05;;;;;;;11.76;74.97;99175.25;1788132;80;21473;-71
2021/09/25 07:14:38;;;;;;;6.15;1.70;;;;;;;11.80;74.80;99172.20;1790304;80;21079;-70
2021/09/25 07:17:05;;;;;;;6.42;1.65;;;;;;;11.91;74.98;99172.88;1787873;80;21594;-69
2021/09/25 07:19:31;;;;;;;7.35;1.70;;;;;;;12.07;74.91;99167.48;1787945;79;21016;-73
2021/09/25 07:21:59;;;;;;;5.53;2.27;;;;;;;12.23;74.11;99176.23;1784704;80;21005;-71
2021/09/25 07:24:25;;;;;;;6.08;2.30;;;;;;;12.26;73.72;99169.63;1768741;80;21071;-71
2021/09/25 07:26:52;;;;;;;6.22;2.08;;;;;;;12.29;73.65;99176.44;1786261;80;21032;-72
2021/09/25 07:29:18;;;;;;;5.25;1.57;;;;;;;12.34;73.75;99167.61;1786661;80;21019;-67
2021/09/25 07:31:46;;;;;;;;;;;;;;;12.51;73.33;99175.25;1789428;80;21032;-66
2021/09/25 07:34:12;;;;;;;;;;;;;;;12.57;72.67;99179.53;1751559;80;20105;-69
2021/09/25 07:36:38;;;;;;;6.03;1.90;;;;;;;12.57;72.81;99182.81;1795869;79;20098;-68
2021/09/25 07:39:04;;;;;;;;;;;;;;;12.48;72.69;99175.84;1796570;79;20981;-69
2021/09/25 07:41:31;;;;;;;6.10;1.67;;;;;;;12.52;72.86;99184.25;1792361;79;20571;-67
2021/09/25 07:43:59;;;;;;;4.60;1.25;;;;;;;12.57;72.59;99175.44;1774417;80;21055;-70
2021/09/25 07:46:25;;;;;;;4.42;1.65;;;;;;;12.64;72.14;99178.60;1777970;79;20999;-68
2021/09/25 07:48:52;;;;;;;;;;;;;;;12.66;71.98;99179.09;1758553;81;21046;-72
2021/09/25 07:51:18;;;;;;;5.15;1.17;;;;;;;12.73;72.18;99170.52;1787769;79;20111;-71
2021/09/25 07:53:44;;;;;;;4.78;1.75;;;;;;;12.84;71.95;99177.42;1779973;80;20982;-69
2021/09/25 07:56:11;;;;;;;6.53;1.70;;;;;;;12.94;71.41;99181.34;1748932;80;21572;-69
2021/09/25 07:58:37;;;;;;;;;;;;;;;12.98;71.39;99181.81;1764208;80;21000;-72
2021/09/25 08:01:04;;;;;;;7.00;1.80;;;;;;;13.00;71.33;99181.53;1766234;80;20381;-71
2021/09/25 08:03:31;;;;;;;8.03;2.50;;;;;;;13.03;71.27;99186.94;1771713;80;21013;-69
2021/09/25 08:05:57;;;;;;;6.90;2.60;;;;;;;13.12;70.48;99192.80;1766382;80;21569;-69
2021/09/25 08:08:24;;;;;;;9.53;2.40;;;;;;;13.16;70.23;99197.92;1762195;80;21047;-71
2021/09/25 08:10:50;;;;;;;7.78;2.98;;;;;;;13.23;70.43;99202.43;1780498;80;21933;-72
2021/09/25 08:13:16;;;;;;;;;;;;;;;13.31;70.12;99202.30;1781428;80;21034;-72
2021/09/25 08:15:42;;;;;;;8.13;2.05;;;;;;;13.38;69.32;99202.16;1792436;80;20123;-70
2021/09/25 08:18:09;;;;;;;7.12;2.70;;;;;;;13.33;69.35;99207.70;1786778;79;20960;-73
2021/09/25 08:20:35;;;;;;;;;;;;;;;13.32;69.35;99210.17;1778447;80;20949;-70
2021/09/25 08:23:02;;;;;;;5.15;2.12;;;;;;;13.31;69.39;99211.31;1779318;80;20446;-71
2021/09/25 08:25:28;;;;;;;6.50;2.15;;;;;;;13.31;69.36;99208.58;1780719;80;20934;-72
2021/09/25 08:27:54;;;;;;;;;;;;;;;13.41;69.03;99213.03;1781801;80;21000;-70
2021/09/25 08:30:24;;;;;;;7.58;2.00;;;;;;;13.43;69.29;99212.97;1785971;79;20164;-69
2021/09/25 08:32:49;;;;;;;7.40;1.92;;;;;;;13.43;69.62;99217.63;1783697;80;21550;-70
2021/09/25 08:35:15;;;;;;;4.08;1.67;;;;;;;13.49;69.32;99216.98;1790304;80;21023;-71
2021/09/25 08:37:41;;;;;;;4.83;1.85;;;;;;;13.58;68.90;99216.52;1790022;80;21055;-72
2021/09/25 08:40:10;;;;;;;;;;;;;;;13.61;68.52;99220.02;1786141;80;21016;-70
2021/09/25 08:42:37;;;;;;;4.90;1.70;;;;;;;13.64;68.68;99224.91;1780871;80;20104;-71
2021/09/25 08:45:05;;;;;;;4.87;1.67;;;;;;;13.65;68.67;99224.58;1791816;79;21014;-70
2021/09/25 08:47:31;;;;;;;3.47;1.60;;;;;;;13.77;68.23;99227.62;1796855;79;21041;-70
2021/09/25 08:49:57;;;;;;;8.10;2.70;;;;;;;13.84;67.60;99230.77;1783661;80;21008;-70
2021/09/25 08:52:23;;;;;;;10.75;4.50;;;;;;;13.92;68.36;99242.34;1758437;81;21006;-70
2021/09/25 08:54:50;;;;;;;6.67;2.08;;;;;;;14.13;68.54;99241.93;1746397;81;20997;-73
2021/09/25 08:57:16;;;;;;;9.75;3.77;;;;;;;14.30;67.61;99240.72;1734343;81;21048;-70
2021/09/25 08:59:42;;;;;;;;;;;;;;;14.42;67.53;99243.75;1800534;79;21485;-73
2021/09/25 09:02:15;;;;;;;6.62;1.55;;;;;;;14.47;66.53;99243.64;1792664;79;20130;-72
2021/09/25 09:04:54;;;;;;;6.67;1.17;;;;;;;14.37;66.68;99253.47;1798243;80;21079;-70
2021/09/25 09:07:25;;;;;;;5.70;1.52;;;;;;;14.39;65.93;99254.77;1811797;79;21085;-75
2021/09/25 09:09:51;;;;;;;6.95;1.72;;;;;;;14.34;65.52;99256.83;1792363;79;21021;-73
2021/09/25 09:12:23;;;;;;;5.10;1.22;;;;;;;14.37;65.54;99258.94;1759698;81;21047;-72
2021/09/25 09:14:50;;;;;;;4.92;1.57;;;;;;;14.44;64.71;99260.14;1772653;81;21528;-72
2021/09/25 09:17:25;;;;;;;3.58;1.15;;;;;;;14.40;65.01;99266.53;1756374;81;21592;-70
2021/09/25 09:19:52;;;;;;;5.17;1.20;;;;;;;14.34;65.50;99264.48;1756356;81;21035;-71
2021/09/25 09:22:20;;;;;;;3.90;1.50;;;;;;;14.36;66.46;99261.42;1751382;82;21541;-72
2021/09/25 09:24:49;;;;;;;4.25;1.45;;;;;;;14.42;66.35;99265.66;1783772;80;21582;-71
2021/09/25 09:27:19;;;;;;;3.12;1.40;;;;;;;14.42;66.56;99265.66;1756532;81;21516;-76
2021/09/25 09:29:46;;;;;;;3.98;1.40;;;;;;;14.43;67.52;99272.20;1778578;81;21000;-76
2021/09/25 09:32:13;;;;;;;4.80;1.32;;;;;;;14.50;67.25;99264.94;1798554;80;21046;-77
2021/09/25 09:34:41;;;;;;;4.45;1.45;;;;;;;14.62;67.38;99258.92;1811599;79;21067;-70
2021/09/25 09:37:19;;;;;;;3.08;1.10;;;;;;;14.82;66.62;99258.43;1798104;80;21122;-71
2021/09/25 09:40:00;;;;;;;3.70;1.10;;;;;;;14.92;65.49;99250.77;1765906;80;21078;-72
2021/09/25 09:42:48;;;;;;;4.87;1.25;;;;;;;14.89;64.63;99250.03;1767428;81;21031;-70
2021/09/25 09:45:27;;;;;;;3.10;0.90;;;;;;;14.85;64.76;99240.80;1798031;80;21055;-72
2021/09/25 09:47:53;;;;;;;4.40;1.00;;;;;;;14.90;64.28;99235.77;1788243;79;21042;-73
2021/09/25 09:50:19;;;;;;;;;;;;;;;14.90;64.09;99238.51;1773175;81;21059;-73
2021/09/25 09:52:46;;;;;;;3.52;1.07;;;;;;;14.93;63.46;99235.14;1770579;80;20105;-71
2021/09/25 09:55:24;;;;;;;;;;;;;;;14.88;63.61;99236.63;1753528;82;21093;-71
2021/09/25 09:58:05;;;;;;;3.67;1.22;;;;;;;15.05;64.17;99228.54;1753131;81;20129;-71
2021/09/25 10:00:35;;;;;;;6.90;2.47;;;;;;;15.26;64.01;99220.03;1790014;80;20962;-71
2021/09/25 10:03:02;;;;;;;7.75;1.90;;;;;;;15.50;64.00;99218.88;1762291;81;21025;-71
2021/09/25 10:05:28;;;;;;;6.97;1.67;;;;;;;15.66;63.57;99205.77;1762447;80;20993;-71
2021/09/25 10:07:55;;;;;;;4.08;1.55;;;;;;;15.77;63.11;99206.29;1751004;82;21035;-71
2021/09/25 10:10:23;;;;;;;;;;;;;;;15.85;62.58;99203.58;1739735;82;21081;-70
2021/09/25 10:12:49;;;;;;;9.53;3.80;;;;;;;15.85;61.51;99205.52;1753500;81;20103;-76
2021/09/25 10:15:15;;;;;;;;;;;;;;;15.70;60.89;99215.55;1744979;81;21035;-74
2021/09/25 10:17:42;;;;;;;7.15;3.30;;;;;;;15.67;61.69;99220.30;1773713;80;20118;-70
2021/09/25 10:20:10;;;;;;;8.25;4.28;;;;;;;15.58;61.80;99220.84;1774180;81;21001;-71
2021/09/25 10:22:37;;;;;;;5.10;3.08;;;;;;;15.60;62.01;99219.95;1774013;81;21028;-71
2021/09/25 10:25:06;;;;;;;7.17;3.62;;;;;;;15.68;61.88;99221.93;1774880;80;21093;-71
2021/09/25 10:27:36;;;;;;;7.15;2.62;;;;;;;15.83;61.95;99222.31;1774031;81;21075;-72
2021/09/25 10:30:04;;;;;;;6.20;2.00;;;;;;;16.02;61.83;99219.27;1774230;81;21044;-71
2021/09/25 10:32:36;;;;;;;8.38;2.77;;;;;;;16.07;61.20;99220.52;1774016;81;21590;-71
2021/09/25 10:35:25;;;;;;;6.50;3.02;;;;;;;16.12;61.27;99220.93;1761361;80;21601;-71
2021/09/25 10:38:00;;;;;;;6.70;2.58;;;;;;;16.18;59.75;99216.89;1756718;82;21058;-70
2021/09/25 10:40:39;;;;;;;6.95;3.15;;;;;;;16.07;59.96;99216.39;1762492;81;21089;-70
2021/09/25 10:43:24;;;;;;;8.38;3.45;;;;;;;16.08;60.89;99211.16;1732714;83;21027;-71
2021/09/25 10:45:56;;;;;;;10.60;4.83;;;;;;;16.14;60.65;99205.75;1728575;81;21954;-71
2021/09/25 10:48:26;;;;;;;8.20;3.42;;;;;;;16.20;60.88;99213.25;1742794;82;21595;-70
2021/09/25 10:51:09;;;;;;;8.45;4.62;;;;;;;16.24;60.64;99207.36;1742530;81;21057;-73
2021/09/25 10:53:41;;;;;;;10.95;3.92;;;;;;;16.25;60.32;99214.48;1742735;82;21037;-70
2021/09/25 10:56:23;;;;;;;9.13;3.80;;;;;;;16.11;59.87;99220.12;1753571;80;21548;-70
2021/09/25 10:59:03;;;;;;;9.20;4.37;;;;;;;16.03;60.20;99215.41;1753712;81;21361;-71
2021/09/25 11:01:33;;;;;;;8.40;3.47;;;;;;;16.03;59.76;99212.67;1733494;82;21093;-73
2021/09/25 11:04:10;;;;;;;9.40;2.80;;;;;;;15.96;60.33;99215.63;1756329;80;20990;-75
2021/09/25 11:06:52;;;;;;;10.70;3.65;;;;;;;15.98;60.61;99205.94;1755691;81;21613;-72
2021/09/25 11:09:40;;;;;;;12.78;3.90;;;;;;;16.05;60.68;99209.02;1756463;82;20994;-72
2021/09/25 11:12:14;;;;;;;9.95;3.37;;;;;;;16.21;60.87;99207.45;1756516;82;21097;-73
2021/09/25 11:14:56;;;;;;;10.65;3.83;;;;;;;16.38;60.25;99212.14;1752652;80;20990;-72
2021/09/25 11:17:24;;;;;;;8.10;2.45;;;;;;;16.37;60.28;99212.70;1752214;82;21036;-74
2021/09/25 11:20:05;;;;;;;12.58;3.25;;;;;;;16.37;59.76;99215.45;1733075;82;21005;-72
2021/09/25 11:22:44;;;;;;;8.85;2.75;;;;;;;16.36;60.02;99213.85;1754904;80;21509;-70
2021/09/25 11:25:10;;;;;;;;;;;;;;;16.36;60.08;99205.61;1752789;82;21018;-71
2021/09/25 11:27:43;;;;;;;11.50;3.40;;;;;;;16.39;60.03;99211.02;1750474;82;20102;-71
2021/09/25 11:30:22;;;;;;;8.43;3.25;;;;;;;16.34;60.04;99217.47;1757118;81;22018;-74
2021/09/25 11:32:57;;;;;;;8.45;3.62;;;;;;;16.33;60.04;99221.93;1760472;80;21004;-72
2021/09/25 11:35:31;;;;;;;9.43;3.30;;;;;;;16.25;60.45;99216.66;1779002;80;21032;-71
2021/09/25 11:38:14;;;;;;;7.22;2.40;;;;;;;16.18;60.41;99227.31;1788446;80;21553;-72
2021/09/25 11:40:49;;;;;;;10.45;4.47;;;;;;;16.15;59.81;99225.22;1786851;80;21621;-73
2021/09/25 11:43:19;;;;;;;11.12;3.77;;;;;;;16.05;59.87;99231.58;1772647;79;20955;-72
2021/09/25 11:45:48;;;;;;;10.15;3.35;;;;;;;15.90;59.49;99230.89;1770230;80;21089;-73